Time;durP1;ratioP1;P1;durP2;ratioP2;P2;SDS_P1;SDS_P2;PMS_P1;PMS_P2;Temp;Humidity;BMP_temperature;BMP_pressure;BME280_temperature;BME280_humidity;BME280_pressure;Samples;Min_cycle;Max_cycle;Signal;HPM_P1;HPM_P2
2022/11/20 00:01:06;;;;;;;239.27;67.67;;;;;;;;;;5035433;28;20212;-42
2022/11/20 00:03:34;;;;;;;436.53;213.27;;;;;;;;;;5035345;28;20576;-42
2022/11/20 00:06:02;;;;;;;257.03;122.00;;;;;;;;;;5035197;28;20224;-41
2022/11/20 00:08:29;;;;;;;106.37;46.07;;;;;;;;;;5035202;28;20232;-42
2022/11/20 00:10:56;;;;;;;58.27;27.03;;;;;;;;;;5034360;28;20211;-42
2022/11/20 00:13:23;;;;;;;62.47;24.37;;;;;;;;;;5035450;28;20205;-42
2022/11/20 00:15:56;;;;;;;79.17;28.43;;;;;;;;;;5035226;28;20208;-42
2022/11/20 00:18:24;;;;;;;75.87;27.30;;;;;;;;;;5035031;28;20177;-42
2022/11/20 00:20:51;;;;;;;95.63;33.40;;;;;;;;;;5035108;28;20200;-42
2022/11/20 00:23:18;;;;;;;75.07;28.03;;;;;;;;;;5034810;28;20220;-42
2022/11/20 00:25:45;;;;;;;101.03;34.43;;;;;;;;;;5034856;28;20232;-42
2022/11/20 00:28:12;;;;;;;60.70;24.67;;;;;;;;;;5034797;28;20204;-42
2022/11/20 00:30:39;;;;;;;96.53;39.50;;;;;;;;;;5034730;28;20209;-42
2022/11/20 00:33:06;;;;;;;149.70;76.57;;;;;;;;;;5034685;28;20714;-41
2022/11/20 00:35:33;;;;;;;154.73;63.03;;;;;;;;;;5034710;28;20208;-41
2022/11/20 00:38:00;;;;;;;61.53;29.53;;;;;;;;;;5035618;28;20212;-41
2022/11/20 00:40:27;;;;;;;59.73;25.57;;;;;;;;;;5035217;28;20262;-42
2022/11/20 00:42:54;;;;;;;57.33;25.17;;;;;;;;;;5035214;28;20200;-42
2022/11/20 00:45:21;;;;;;;59.60;25.73;;;;;;;;;;5034859;28;20287;-41
2022/11/20 00:47:48;;;;;;;61.37;23.87;;;;;;;;;;5034568;28;20688;-41
2022/11/20 00:50:15;;;;;;;44.77;21.27;;;;;;;;;;5034865;28;20286;-42
2022/11/20 00:52:42;;;;;;;51.40;22.57;;;;;;;;;;5035167;28;20204;-42
2022/11/20 00:55:08;;;;;;;73.07;27.53;;;;;;;;;;5034921;28;20204;-42
2022/11/20 00:57:36;;;;;;;54.90;22.90;;;;;;;;;;5034810;28;20204;-41
2022/11/20 01:00:03;;;;;;;66.33;30.73;;;;;;;;;;5034594;28;20204;-42
2022/11/20 01:02:30;;;;;;;140.40;63.30;;;;;;;;;;5034747;28;20204;-42
2022/11/20 01:04:56;;;;;;;128.50;50.57;;;;;;;;;;5034441;28;20658;-41
2022/11/20 01:07:23;;;;;;;66.23;29.73;;;;;;;;;;5034399;28;20215;-42
2022/11/20 01:09:51;;;;;;;57.03;24.33;;;;;;;;;;5034508;28;20319;-42
2022/11/20 01:12:18;;;;;;;71.00;26.17;;;;;;;;;;5033741;28;20216;-42
2022/11/20 01:14:44;;;;;;;71.83;27.83;;;;;;;;;;5034423;28;20642;-42
2022/11/20 01:17:11;;;;;;;100.90;31.97;;;;;;;;;;5034726;28;20208;-42
2022/11/20 01:19:38;;;;;;;84.27;28.67;;;;;;;;;;5034723;28;20205;-42
2022/11/20 01:22:05;;;;;;;84.63;29.73;;;;;;;;;;5034402;28;20216;-42
2022/11/20 01:24:32;;;;;;;65.03;25.60;;;;;;;;;;5038261;28;20229;-44
2022/11/20 01:26:59;;;;;;;139.83;52.93;;;;;;;;;;5038318;28;20201;-42
2022/11/20 01:29:26;;;;;;;174.97;83.20;;;;;;;;;;5038454;28;20217;-41
2022/11/20 01:31:53;;;;;;;105.97;46.03;;;;;;;;;;5038241;28;20570;-42
2022/11/20 01:34:22;;;;;;;65.00;28.63;;;;;;;;;;5038191;28;20288;-42
2022/11/20 01:36:49;;;;;;;64.53;25.57;;;;;;;;;;5037982;28;20634;-42
2022/11/20 01:39:22;;;;;;;49.43;23.20;;;;;;;;;;5037915;28;20215;-42
2022/11/20 01:44:49;;;;;;;62.57;25.13;;;;;;;;;;5027176;28;20228;-43
2022/11/20 01:47:28;;;;;;;65.83;24.80;;;;;;;;;;5057797;28;20204;-42
2022/11/20 01:50:05;;;;;;;48.47;21.10;;;;;;;;;;5057722;28;20211;-42
2022/11/20 01:52:41;;;;;;;54.97;23.57;;;;;;;;;;5057524;28;20208;-42
2022/11/20 01:55:11;;;;;;;62.63;24.37;;;;;;;;;;5057560;28;20636;-42
2022/11/20 01:57:38;;;;;;;64.83;27.43;;;;;;;;;;5057752;28;20523;-41
2022/11/20 02:00:09;;;;;;;91.70;40.13;;;;;;;;;;5057399;28;20632;-42
2022/11/20 02:02:41;;;;;;;61.30;25.07;;;;;;;;;;5057541;28;20625;-42
2022/11/20 02:05:16;;;;;;;60.83;25.77;;;;;;;;;;5056599;28;20252;-42
2022/11/20 02:07:44;;;;;;;57.87;24.07;;;;;;;;;;5057254;28;20654;-42
2022/11/20 02:10:11;;;;;;;57.70;24.17;;;;;;;;;;5057586;28;20236;-41
2022/11/20 02:15:23;;;;;;;49.37;22.77;;;;;;;;;;5057217;28;20535;-42
2022/11/20 02:17:56;;;;;;;41.03;21.43;;;;;;;;;;5057765;28;20192;-42
2022/11/20 02:20:23;;;;;;;45.97;22.40;;;;;;;;;;5056929;28;20633;-43
2022/11/20 02:23:11;;;;;;;78.47;27.97;;;;;;;;;;5057069;28;20625;-42
2022/11/20 02:25:39;;;;;;;504.17;253.13;;;;;;;;;;5056170;28;20231;-42
2022/11/20 02:28:06;;;;;;;76.43;37.70;;;;;;;;;;5056541;28;20208;-42
2022/11/20 02:30:33;;;;;;;112.50;36.80;;;;;;;;;;5057080;28;20292;-42
2022/11/20 02:33:00;;;;;;;137.70;39.30;;;;;;;;;;5057123;28;20625;-42
2022/11/20 02:35:27;;;;;;;118.10;35.87;;;;;;;;;;5056185;28;20628;-41
2022/11/20 02:37:56;;;;;;;124.13;40.57;;;;;;;;;;5056745;28;20200;-42
2022/11/20 02:40:23;;;;;;;88.57;34.33;;;;;;;;;;5056793;28;20200;-42
2022/11/20 02:42:55;;;;;;;70.80;30.57;;;;;;;;;;5055928;28;20207;-42
2022/11/20 02:45:22;;;;;;;64.80;29.10;;;;;;;;;;5057148;28;20230;-42
2022/11/20 02:47:50;;;;;;;92.10;32.63;;;;;;;;;;5056644;28;20219;-41
2022/11/20 02:50:17;;;;;;;77.53;27.13;;;;;;;;;;5055504;28;20212;-43
2022/11/20 02:52:44;;;;;;;404.67;166.10;;;;;;;;;;5056591;28;20204;-42
2022/11/20 02:55:11;;;;;;;665.67;308.70;;;;;;;;;;5056803;28;20242;-41
2022/11/20 02:57:38;;;;;;;274.53;79.40;;;;;;;;;;5056612;28;20208;-42
2022/11/20 03:00:06;;;;;;;175.50;45.83;;;;;;;;;;5056375;28;20208;-42
2022/11/20 03:02:33;;;;;;;134.13;37.87;;;;;;;;;;5056427;28;20227;-42
2022/11/20 03:05:00;;;;;;;63.73;23.90;;;;;;;;;;5055921;28;20722;-41
2022/11/20 03:07:27;;;;;;;84.03;29.63;;;;;;;;;;5055940;28;20204;-41
2022/11/20 03:09:54;;;;;;;85.60;28.40;;;;;;;;;;5056315;28;20230;-42
2022/11/20 03:12:21;;;;;;;49.17;22.63;;;;;;;;;;5056137;28;20257;-42
2022/11/20 03:14:48;;;;;;;61.37;23.90;;;;;;;;;;5056536;28;20200;-42
2022/11/20 03:17:19;;;;;;;55.43;23.70;;;;;;;;;;5056156;28;20208;-42
2022/11/20 03:19:46;;;;;;;97.07;33.83;;;;;;;;;;5056022;28;20214;-42
2022/11/20 03:22:13;;;;;;;551.37;277.47;;;;;;;;;;5056606;28;20527;-42
2022/11/20 03:24:40;;;;;;;240.70;93.23;;;;;;;;;;5055754;28;20648;-43
2022/11/20 03:27:07;;;;;;;62.43;26.47;;;;;;;;;;5056070;28;20228;-42
2022/11/20 03:29:37;;;;;;;73.27;26.17;;;;;;;;;;5056031;28;20203;-42
2022/11/20 03:32:04;;;;;;;99.97;31.00;;;;;;;;;;5055848;28;20204;-41
2022/11/20 03:34:31;;;;;;;69.43;26.43;;;;;;;;;;5055462;28;20621;-42
2022/11/20 03:36:58;;;;;;;64.07;24.80;;;;;;;;;;5056153;28;20199;-42
2022/11/20 03:39:26;;;;;;;71.13;26.30;;;;;;;;;;5055796;28;20210;-42
2022/11/20 03:41:53;;;;;;;44.70;20.50;;;;;;;;;;5054722;28;20625;-42
2022/11/20 03:44:21;;;;;;;49.13;21.70;;;;;;;;;;5055777;28;20204;-42
2022/11/20 03:46:48;;;;;;;42.37;20.53;;;;;;;;;;5054304;28;20228;-42
2022/11/20 03:49:14;;;;;;;77.80;34.70;;;;;;;;;;5055525;28;20215;-42
2022/11/20 03:51:42;;;;;;;187.43;92.97;;;;;;;;;;5055351;28;20660;-42
2022/11/20 03:54:09;;;;;;;111.97;45.57;;;;;;;;;;5055301;28;20278;-42
2022/11/20 03:56:37;;;;;;;78.33;29.53;;;;;;;;;;5055772;28;20219;-42
2022/11/20 03:59:05;;;;;;;64.30;24.00;;;;;;;;;;5055078;28;20718;-43
2022/11/20 04:01:34;;;;;;;63.70;23.30;;;;;;;;;;5055506;28;20539;-42
2022/11/20 04:04:01;;;;;;;44.03;20.60;;;;;;;;;;5055324;28;20283;-41
2022/11/20 04:06:33;;;;;;;41.80;20.50;;;;;;;;;;5055049;28;20231;-42
2022/11/20 04:08:59;;;;;;;45.73;20.40;;;;;;;;;;5056057;28;20327;-42
2022/11/20 04:11:32;;;;;;;39.17;19.07;;;;;;;;;;5055327;28;20214;-42
2022/11/20 04:14:00;;;;;;;37.63;18.83;;;;;;;;;;5054986;28;20620;-42
2022/11/20 04:16:33;;;;;;;70.70;26.30;;;;;;;;;;5055138;28;20222;-42
2022/11/20 04:19:01;;;;;;;254.47;105.10;;;;;;;;;;5055007;28;20215;-41
2022/11/20 04:21:28;;;;;;;138.47;58.57;;;;;;;;;;5054977;28;20660;-42
2022/11/20 04:23:56;;;;;;;104.47;33.83;;;;;;;;;;5054748;28;20196;-42
2022/11/20 04:26:26;;;;;;;117.83;32.60;;;;;;;;;;5054647;28;20265;-42
2022/11/20 04:28:53;;;;;;;49.17;20.53;;;;;;;;;;5054203;28;20227;-44
2022/11/20 04:31:22;;;;;;;52.40;21.73;;;;;;;;;;5047611;28;20204;-44
2022/11/20 04:33:49;;;;;;;41.63;20.63;;;;;;;;;;5044480;28;20227;-46
2022/11/20 04:36:19;;;;;;;38.77;18.10;;;;;;;;;;5047973;28;20208;-42
2022/11/20 04:38:48;;;;;;;36.00;18.57;;;;;;;;;;5045366;28;20271;-44
2022/11/20 04:41:24;;;;;;;29.07;16.23;;;;;;;;;;5043408;28;20255;-42
2022/11/20 04:43:52;;;;;;;31.17;15.70;;;;;;;;;;5042018;28;20537;-43
2022/11/20 04:46:20;;;;;;;47.93;20.83;;;;;;;;;;5043842;28;20224;-43
2022/11/20 04:48:47;;;;;;;94.63;45.20;;;;;;;;;;5043280;28;20227;-44
2022/11/20 04:51:14;;;;;;;52.90;23.23;;;;;;;;;;5044421;28;20219;-43
2022/11/20 04:53:42;;;;;;;46.17;20.40;;;;;;;;;;5043054;28;20200;-42
2022/11/20 04:56:10;;;;;;;35.30;16.40;;;;;;;;;;5042817;28;20215;-46
2022/11/20 04:58:38;;;;;;;33.50;17.40;;;;;;;;;;5050959;28;20208;-43
2022/11/20 05:01:08;;;;;;;36.37;17.57;;;;;;;;;;5058694;28;20564;-43
2022/11/20 05:03:35;;;;;;;39.33;19.07;;;;;;;;;;5058066;28;20203;-42
2022/11/20 05:06:09;;;;;;;36.40;18.13;;;;;;;;;;5059030;28;20305;-43
2022/11/20 05:08:36;;;;;;;35.77;17.70;;;;;;;;;;5058826;28;20319;-42
2022/11/20 05:11:06;;;;;;;42.80;18.93;;;;;;;;;;5059026;28;20204;-42
2022/11/20 05:13:33;;;;;;;54.43;23.07;;;;;;;;;;5058445;28;20206;-42
2022/11/20 05:16:05;;;;;;;174.37;71.50;;;;;;;;;;5058267;28;20536;-42
2022/11/20 05:18:33;;;;;;;50.57;23.60;;;;;;;;;;5058444;28;20570;-42
2022/11/20 05:21:01;;;;;;;55.03;22.47;;;;;;;;;;5058351;28;20204;-43
2022/11/20 05:23:29;;;;;;;41.30;18.20;;;;;;;;;;5057913;28;20204;-42
2022/11/20 05:25:57;;;;;;;38.10;18.03;;;;;;;;;;5057804;28;20230;-42
2022/11/20 05:28:26;;;;;;;36.93;17.90;;;;;;;;;;5057705;28;20208;-42
2022/11/20 05:30:54;;;;;;;37.83;17.90;;;;;;;;;;5057779;28;20196;-42
2022/11/20 05:33:21;;;;;;;35.63;16.77;;;;;;;;;;5057850;28;20200;-42
2022/11/20 05:35:48;;;;;;;32.57;17.20;;;;;;;;;;5057743;28;20204;-43
2022/11/20 05:38:15;;;;;;;33.40;17.20;;;;;;;;;;5057593;28;20211;-43
2022/11/20 05:40:42;;;;;;;36.97;17.23;;;;;;;;;;5057858;28;20258;-45
2022/11/20 05:43:09;;;;;;;98.13;42.63;;;;;;;;;;5057794;28;20203;-42
2022/11/20 05:45:36;;;;;;;134.80;62.53;;;;;;;;;;5057349;28;20541;-46
2022/11/20 05:48:03;;;;;;;73.80;30.00;;;;;;;;;;5057466;28;20203;-42
2022/11/20 05:50:31;;;;;;;46.93;19.10;;;;;;;;;;5057310;28;20196;-42
2022/11/20 05:52:59;;;;;;;40.17;17.70;;;;;;;;;;5057406;28;20219;-43
2022/11/20 05:55:26;;;;;;;38.50;18.00;;;;;;;;;;5057263;28;20204;-43
2022/11/20 05:57:54;;;;;;;33.80;17.70;;;;;;;;;;5057192;28;20238;-42
2022/11/20 06:00:22;;;;;;;33.70;17.07;;;;;;;;;;5057346;28;20218;-43
2022/11/20 06:02:49;;;;;;;30.17;17.47;;;;;;;;;;5057211;28;20283;-43
2022/11/20 06:05:16;;;;;;;30.70;17.63;;;;;;;;;;5057251;28;20523;-42
2022/11/20 06:07:43;;;;;;;32.27;16.73;;;;;;;;;;5057163;28;20231;-42
2022/11/20 06:10:11;;;;;;;29.57;16.77;;;;;;;;;;5056008;28;20223;-43
2022/11/20 06:12:38;;;;;;;96.57;42.50;;;;;;;;;;5056926;28;20203;-43
2022/11/20 06:15:05;;;;;;;56.90;26.17;;;;;;;;;;5057188;28;20212;-42
2022/11/20 06:17:32;;;;;;;54.97;23.83;;;;;;;;;;5057014;28;20207;-42
2022/11/20 06:19:59;;;;;;;32.10;16.70;;;;;;;;;;5057082;28;20212;-42
2022/11/20 06:22:26;;;;;;;40.80;19.07;;;;;;;;;;5056863;28;20204;-43
2022/11/20 06:24:53;;;;;;;31.13;16.40;;;;;;;;;;5057013;28;20204;-43
2022/11/20 06:27:20;;;;;;;34.57;18.33;;;;;;;;;;5055277;28;20235;-42
2022/11/20 06:29:47;;;;;;;31.90;17.83;;;;;;;;;;5056270;28;20204;-43
2022/11/20 06:32:13;;;;;;;37.13;19.10;;;;;;;;;;5057071;28;20574;-41
2022/11/20 06:34:40;;;;;;;33.20;17.83;;;;;;;;;;5057029;28;20212;-42
2022/11/20 06:37:07;;;;;;;32.53;15.93;;;;;;;;;;5056736;28;20214;-42
2022/11/20 06:39:34;;;;;;;52.43;25.33;;;;;;;;;;5056966;28;20208;-43
2022/11/20 06:42:01;;;;;;;56.17;32.17;;;;;;;;;;5056430;28;20667;-42
2022/11/20 06:44:28;;;;;;;50.60;24.00;;;;;;;;;;5056633;28;20215;-42
2022/11/20 06:46:55;;;;;;;30.83;16.40;;;;;;;;;;5056463;28;20223;-43
2022/11/20 06:49:22;;;;;;;51.37;20.53;;;;;;;;;;5056650;28;20211;-42
2022/11/20 06:51:49;;;;;;;46.57;19.90;;;;;;;;;;5056600;28;20200;-41
2022/11/20 06:54:17;;;;;;;56.83;21.60;;;;;;;;;;5043505;28;20233;-45
2022/11/20 06:56:47;;;;;;;66.70;23.33;;;;;;;;;;5052147;28;20668;-42
2022/11/20 06:59:14;;;;;;;42.63;18.23;;;;;;;;;;5054886;28;20289;-43
2022/11/20 07:01:41;;;;;;;52.10;20.60;;;;;;;;;;5055382;28;20288;-42
2022/11/20 07:04:08;;;;;;;54.67;22.43;;;;;;;;;;5055055;28;20285;-43
2022/11/20 07:06:35;;;;;;;58.37;23.07;;;;;;;;;;5051282;28;20227;-44
2022/11/20 07:09:03;;;;;;;644.77;343.87;;;;;;;;;;5054501;28;20290;-42
2022/11/20 07:11:37;;;;;;;223.60;93.23;;;;;;;;;;5055413;28;20224;-43
2022/11/20 07:14:04;;;;;;;170.57;45.57;;;;;;;;;;5055145;28;20668;-42
2022/11/20 07:16:31;;;;;;;148.87;40.27;;;;;;;;;;5055425;28;20231;-42
2022/11/20 07:18:58;;;;;;;60.30;23.73;;;;;;;;;;5054884;28;20231;-42
2022/11/20 07:21:25;;;;;;;71.93;24.87;;;;;;;;;;5055023;28;20228;-42
2022/11/20 07:23:52;;;;;;;68.97;23.60;;;;;;;;;;5054431;28;20227;-41
2022/11/20 07:26:19;;;;;;;43.20;18.80;;;;;;;;;;5055072;28;20305;-41
2022/11/20 07:28:46;;;;;;;37.07;18.50;;;;;;;;;;5054413;28;20243;-42
2022/11/20 07:31:14;;;;;;;42.60;18.97;;;;;;;;;;5055074;28;20227;-46
2022/11/20 07:33:46;;;;;;;44.33;19.97;;;;;;;;;;5055274;28;20231;-42
2022/11/20 07:36:13;;;;;;;352.33;143.13;;;;;;;;;;5054780;28;20240;-44
2022/11/20 07:38:40;;;;;;;305.17;147.10;;;;;;;;;;5054440;28;20228;-41
2022/11/20 07:41:07;;;;;;;221.07;100.47;;;;;;;;;;5054958;28;20244;-42
2022/11/20 07:43:34;;;;;;;272.43;111.03;;;;;;;;;;5054730;28;20232;-44
2022/11/20 07:46:06;;;;;;;198.93;91.77;;;;;;;;;;5054821;28;20223;-42
2022/11/20 07:48:34;;;;;;;71.90;37.00;;;;;;;;;;5054574;28;20224;-43
2022/11/20 07:51:00;;;;;;;40.90;22.10;;;;;;;;;;5052769;28;20727;-41
2022/11/20 07:53:28;;;;;;;35.63;18.03;;;;;;;;;;5051599;28;20770;-53
2022/11/20 07:55:55;;;;;;;45.50;21.77;;;;;;;;;;5032568;28;20813;-45
2022/11/20 07:58:22;;;;;;;33.27;17.53;;;;;;;;;;5054183;28;20212;-44
2022/11/20 08:00:49;;;;;;;48.73;20.73;;;;;;;;;;5053780;28;20250;-43
2022/11/20 08:03:16;;;;;;;77.17;32.80;;;;;;;;;;5055025;28;20265;-43
2022/11/20 08:05:50;;;;;;;395.30;220.40;;;;;;;;;;5053857;28;20262;-46
2022/11/20 08:08:17;;;;;;;249.33;91.73;;;;;;;;;;5053969;28;20612;-44
2022/11/20 08:10:44;;;;;;;304.63;90.43;;;;;;;;;;5053945;28;20232;-44
2022/11/20 08:15:56;;;;;;;343.70;103.77;;;;;;;;;;5053815;28;20238;-43
2022/11/20 08:18:23;;;;;;;426.97;137.63;;;;;;;;;;5054508;28;20243;-43
2022/11/20 08:21:03;;;;;;;144.40;50.80;;;;;;;;;;5051520;28;20258;-44
2022/11/20 08:23:30;;;;;;;174.00;59.90;;;;;;;;;;5053471;28;20215;-43
2022/11/20 08:25:57;;;;;;;200.73;81.17;;;;;;;;;;5053691;28;20228;-47
2022/11/20 08:28:24;;;;;;;150.17;56.67;;;;;;;;;;5053119;28;20239;-45
2022/11/20 08:30:51;;;;;;;82.40;31.40;;;;;;;;;;5052968;28;20228;-41
2022/11/20 08:33:18;;;;;;;128.77;68.90;;;;;;;;;;5051258;28;20809;-41
2022/11/20 08:35:45;;;;;;;200.43;126.87;;;;;;;;;;5053651;28;20730;-41
2022/11/20 08:38:12;;;;;;;276.17;95.83;;;;;;;;;;5053619;28;20196;-41
2022/11/20 08:40:39;;;;;;;191.67;62.70;;;;;;;;;;5052834;28;20204;-41
2022/11/20 08:43:06;;;;;;;93.80;31.07;;;;;;;;;;5048129;28;20205;-41
2022/11/20 08:45:33;;;;;;;148.23;53.57;;;;;;;;;;5039625;28;20554;-44
2022/11/20 08:48:02;;;;;;;62.17;25.17;;;;;;;;;;5032385;28;20554;-43
2022/11/20 08:50:31;;;;;;;73.97;31.23;;;;;;;;;;5034224;28;20205;-41
2022/11/20 08:53:05;;;;;;;74.57;27.97;;;;;;;;;;5035000;28;20270;-42
2022/11/20 08:55:32;;;;;;;70.93;30.30;;;;;;;;;;5035197;28;20299;-40
2022/11/20 08:58:04;;;;;;;61.23;23.23;;;;;;;;;;5034987;28;20208;-41
2022/11/20 09:00:32;;;;;;;439.13;187.60;;;;;;;;;;5034920;28;20197;-41
2022/11/20 09:03:00;;;;;;;243.77;139.57;;;;;;;;;;5039885;28;20196;-40
2022/11/20 09:05:28;;;;;;;51.93;26.53;;;;;;;;;;5054656;28;20222;-41
2022/11/20 09:07:58;;;;;;;130.17;38.70;;;;;;;;;;5054381;28;20243;-40
2022/11/20 09:10:28;;;;;;;75.77;26.93;;;;;;;;;;5054672;28;20228;-42
2022/11/20 09:12:55;;;;;;;62.60;24.73;;;;;;;;;;5054790;28;20192;-41
2022/11/20 09:15:23;;;;;;;49.40;22.70;;;;;;;;;;5054530;28;20200;-41
2022/11/20 09:17:55;;;;;;;50.33;22.43;;;;;;;;;;5054162;28;20641;-41
2022/11/20 09:20:22;;;;;;;43.40;20.90;;;;;;;;;;5054286;28;20234;-41
2022/11/20 09:22:49;;;;;;;41.90;20.20;;;;;;;;;;5054647;28;20621;-41
2022/11/20 09:25:16;;;;;;;38.90;17.63;;;;;;;;;;5054261;28;20528;-40
2022/11/20 09:27:45;;;;;;;173.77;69.63;;;;;;;;;;5054124;28;20668;-41
2022/11/20 09:30:14;;;;;;;402.60;241.60;;;;;;;;;;5054491;28;20269;-41
2022/11/20 09:32:41;;;;;;;103.67;47.40;;;;;;;;;;5054174;28;20509;-42
2022/11/20 09:35:08;;;;;;;136.83;38.10;;;;;;;;;;5054117;28;20204;-41
2022/11/20 09:37:35;;;;;;;86.50;28.07;;;;;;;;;;5054389;28;20212;-41
2022/11/20 09:40:03;;;;;;;45.13;18.77;;;;;;;;;;5054418;28;20215;-41
2022/11/20 09:43:10;;;;;;;55.80;21.43;;;;;;;;;;5054159;28;20211;-41
2022/11/20 09:45:52;;;;;;;43.23;18.33;;;;;;;;;;5057944;28;20290;-41
2022/11/20 09:48:34;;;;;;;50.23;21.13;;;;;;;;;;5057634;28;20231;-41
2022/11/20 09:51:06;;;;;;;53.40;22.17;;;;;;;;;;5058047;28;20262;-40
2022/11/20 09:54:04;;;;;;;57.80;23.93;;;;;;;;;;5057841;28;20197;-41
2022/11/20 09:56:33;;;;;;;155.97;78.77;;;;;;;;;;5058146;28;20200;-41
2022/11/20 09:59:05;;;;;;;277.70;178.00;;;;;;;;;;5056896;28;20199;-41
2022/11/20 10:01:34;;;;;;;119.13;51.97;;;;;;;;;;5056657;28;20291;-41
2022/11/20 10:04:04;;;;;;;118.37;34.77;;;;;;;;;;5056511;28;20648;-41
2022/11/20 10:06:33;;;;;;;83.90;28.07;;;;;;;;;;5056854;28;20200;-41
2022/11/20 10:09:03;;;;;;;85.67;27.93;;;;;;;;;;5056330;28;20246;-41
2022/11/20 10:11:48;;;;;;;45.40;20.80;;;;;;;;;;5041954;28;20515;-43
2022/11/20 10:14:17;;;;;;;48.23;20.03;;;;;;;;;;5052467;28;20200;-44
2022/11/20 10:16:57;;;;;;;52.93;21.07;;;;;;;;;;5054927;28;20208;-44
2022/11/20 10:19:37;;;;;;;52.20;21.60;;;;;;;;;;5053427;28;20273;-43
2022/11/20 10:22:13;;;;;;;42.87;19.03;;;;;;;;;;5046194;28;20657;-44
2022/11/20 10:25:06;;;;;;;53.43;22.53;;;;;;;;;;5053181;28;20702;-45
2022/11/20 10:28:04;;;;;;;248.93;162.33;;;;;;;;;;5053434;28;20259;-44
2022/11/20 10:30:36;;;;;;;71.10;32.70;;;;;;;;;;5049333;28;20243;-47
2022/11/20 10:33:24;;;;;;;96.63;32.27;;;;;;;;;;5033985;28;20225;-43
2022/11/20 10:36:16;;;;;;;78.77;28.27;;;;;;;;;;5041177;28;20220;-42
2022/11/20 10:38:46;;;;;;;64.83;26.07;;;;;;;;;;5055740;28;20613;-44
2022/11/20 10:41:25;;;;;;;73.37;28.37;;;;;;;;;;5055926;28;20224;-43
2022/11/20 10:47:16;;;;;;;55.17;23.23;;;;;;;;;;4992971;28;20241;-43
2022/11/20 10:49:46;;;;;;;69.07;26.37;;;;;;;;;;4995420;28;20196;-43
2022/11/20 10:52:27;;;;;;;50.50;23.50;;;;;;;;;;4991831;28;20268;-43
2022/11/20 10:55:10;;;;;;;246.23;152.27;;;;;;;;;;4995324;28;20216;-45
2022/11/20 10:57:59;;;;;;;93.43;39.07;;;;;;;;;;5014568;28;20263;-42
2022/11/20 11:00:25;;;;;;;100.83;36.13;;;;;;;;;;5014550;28;20217;-44
2022/11/20 11:02:54;;;;;;;69.77;29.20;;;;;;;;;;5011507;28;20545;-44
2022/11/20 11:05:43;;;;;;;70.33;29.53;;;;;;;;;;5026856;28;20228;-43
2022/11/20 11:08:12;;;;;;;106.03;58.50;;;;;;;;;;5033938;28;20244;-43
2022/11/20 11:10:43;;;;;;;90.97;46.23;;;;;;;;;;4998924;28;20694;-43
2022/11/20 11:13:28;;;;;;;162.20;76.47;;;;;;;;;;5013888;28;20198;-43
2022/11/20 11:15:56;;;;;;;64.97;28.47;;;;;;;;;;5014868;28;20207;-43
2022/11/20 11:18:29;;;;;;;105.87;43.70;;;;;;;;;;5014418;28;20206;-43
2022/11/20 11:20:58;;;;;;;158.87;64.90;;;;;;;;;;5014230;28;20190;-48
2022/11/20 11:23:36;;;;;;;157.33;71.03;;;;;;;;;;5037209;28;20227;-44
2022/11/20 11:26:19;;;;;;;109.27;46.47;;;;;;;;;;5054663;28;20279;-43
2022/11/20 11:28:59;;;;;;;197.10;63.77;;;;;;;;;;5055855;28;20239;-43
2022/11/20 11:31:32;;;;;;;118.03;37.57;;;;;;;;;;5055751;28;20183;-42
2022/11/20 11:34:26;;;;;;;100.13;35.10;;;;;;;;;;5055469;28;20196;-43
2022/11/20 11:36:57;;;;;;;61.20;24.33;;;;;;;;;;5053859;28;20210;-44
2022/11/20 11:39:26;;;;;;;52.23;22.80;;;;;;;;;;5055461;28;20636;-44
2022/11/20 11:41:53;;;;;;;57.23;23.17;;;;;;;;;;5055188;28;20596;-44
2022/11/20 11:47:51;;;;;;;54.07;21.80;;;;;;;;;;5054980;28;20204;-44
2022/11/20 11:50:27;;;;;;;198.43;102.13;;;;;;;;;;5053268;28;20196;-43
2022/11/20 11:53:02;;;;;;;94.30;57.63;;;;;;;;;;5054505;28;20245;-46
2022/11/20 11:55:56;;;;;;;57.80;27.47;;;;;;;;;;5054375;28;20644;-43
2022/11/20 11:58:38;;;;;;;82.90;28.00;;;;;;;;;;5054441;28;20211;-43
2022/11/20 12:01:43;;;;;;;73.93;25.93;;;;;;;;;;5054802;28;20609;-44
2022/11/20 12:04:48;;;;;;;73.83;26.97;;;;;;;;;;5047174;28;20234;-47
2022/11/20 12:07:20;;;;;;;58.00;21.60;;;;;;;;;;5047320;28;20228;-42
2022/11/20 12:10:16;;;;;;;51.93;21.40;;;;;;;;;;5033671;28;20617;-41
2022/11/20 12:12:48;;;;;;;64.57;25.20;;;;;;;;;;5051340;28;20235;-41
2022/11/20 12:15:30;;;;;;;66.90;22.80;;;;;;;;;;5052926;28;20319;-41
2022/11/20 12:17:58;;;;;;;70.50;24.30;;;;;;;;;;5051528;28;20289;-45
2022/11/20 12:20:31;;;;;;;90.07;45.47;;;;;;;;;;5053783;28;20232;-43
2022/11/20 12:23:09;;;;;;;54.20;27.93;;;;;;;;;;5053754;28;20285;-43
2022/11/20 12:25:37;;;;;;;52.37;20.73;;;;;;;;;;5054120;28;20610;-42
2022/11/20 12:28:20;;;;;;;68.70;24.20;;;;;;;;;;5052956;28;20246;-42
2022/11/20 12:30:59;;;;;;;80.87;28.20;;;;;;;;;;5053891;28;20361;-43
2022/11/20 12:33:47;;;;;;;54.63;21.17;;;;;;;;;;5052138;28;20231;-44
2022/11/20 12:36:36;;;;;;;56.13;22.43;;;;;;;;;;5051155;28;20281;-43
2022/11/20 12:39:18;;;;;;;53.20;20.70;;;;;;;;;;5041962;28;20240;-41
2022/11/20 12:45:11;;;;;;;71.57;27.23;;;;;;;;;;5052965;28;20235;-41
2022/11/20 12:48:00;;;;;;;135.70;51.53;;;;;;;;;;5052674;28;20227;-42
2022/11/20 12:50:55;;;;;;;112.00;73.63;;;;;;;;;;5052363;28;20236;-42
2022/11/20 12:54:10;;;;;;;88.13;34.90;;;;;;;;;;5053593;28;20235;-41
2022/11/20 12:56:48;;;;;;;91.03;31.97;;;;;;;;;;5047139;28;20232;-42
2022/11/20 12:59:38;;;;;;;96.97;31.43;;;;;;;;;;5032873;28;20248;-42
2022/11/20 13:02:22;;;;;;;75.00;28.57;;;;;;;;;;5033935;28;20232;-43
2022/11/20 13:05:26;;;;;;;71.07;27.00;;;;;;;;;;5032838;28;20240;-44
2022/11/20 13:07:54;;;;;;;75.23;27.63;;;;;;;;;;5033515;28;20681;-41
2022/11/20 13:10:31;;;;;;;54.07;23.53;;;;;;;;;;5032250;28;20225;-42
2022/11/20 13:13:12;;;;;;;96.47;31.93;;;;;;;;;;5033794;28;20223;-42
2022/11/20 13:15:50;;;;;;;139.20;48.90;;;;;;;;;;5032853;28;20234;-42
2022/11/20 13:18:18;;;;;;;245.77;145.17;;;;;;;;;;5036134;28;20219;-43
2022/11/20 13:20:45;;;;;;;157.70;78.63;;;;;;;;;;5054872;28;20536;-44
2022/11/20 13:23:23;;;;;;;107.23;40.93;;;;;;;;;;5057088;28;20239;-47
2022/11/20 13:25:52;;;;;;;131.70;39.47;;;;;;;;;;5056977;28;20224;-44
2022/11/20 13:28:19;;;;;;;131.40;40.87;;;;;;;;;;5056747;28;20247;-45
2022/11/20 13:30:53;;;;;;;104.47;40.20;;;;;;;;;;5056543;28;20220;-43
2022/11/20 13:33:39;;;;;;;72.67;31.33;;;;;;;;;;5055486;28;20215;-47
2022/11/20 13:36:20;;;;;;;62.20;26.97;;;;;;;;;;5050821;28;20314;-45
2022/11/20 13:38:53;;;;;;;70.20;27.70;;;;;;;;;;5041324;28;20224;-44
2022/11/20 13:41:27;;;;;;;69.03;25.47;;;;;;;;;;5055571;28;20537;-45
2022/11/20 13:44:18;;;;;;;62.20;24.07;;;;;;;;;;5057111;28;20211;-45
2022/11/20 13:46:46;;;;;;;430.00;255.53;;;;;;;;;;5049578;28;20234;-45
2022/11/20 13:49:33;;;;;;;129.70;83.70;;;;;;;;;;5055082;28;20254;-50
2022/11/20 13:52:27;;;;;;;95.77;37.73;;;;;;;;;;5043682;28;20228;-44
2022/11/20 13:55:15;;;;;;;96.73;31.87;;;;;;;;;;5048718;28;20278;-45
2022/11/20 13:58:16;;;;;;;74.43;27.67;;;;;;;;;;5056229;28;20307;-44
2022/11/20 14:00:45;;;;;;;81.97;30.30;;;;;;;;;;5053696;28;20235;-44
2022/11/20 14:03:18;;;;;;;66.00;26.40;;;;;;;;;;5054943;28;20220;-48
2022/11/20 14:06:13;;;;;;;66.67;25.57;;;;;;;;;;5051857;28;20316;-44
2022/11/20 14:08:44;;;;;;;69.67;28.23;;;;;;;;;;5036350;28;20244;-44
2022/11/20 14:11:15;;;;;;;70.50;25.70;;;;;;;;;;5055165;28;20227;-47
2022/11/20 14:13:58;;;;;;;67.97;24.87;;;;;;;;;;5056729;28;20220;-45
2022/11/20 14:16:28;;;;;;;188.80;120.63;;;;;;;;;;5056297;28;20224;-43
2022/11/20 14:18:55;;;;;;;83.43;38.13;;;;;;;;;;5056020;28;20223;-44
2022/11/20 14:21:28;;;;;;;61.50;26.93;;;;;;;;;;5055606;28;20672;-44
2022/11/20 14:24:22;;;;;;;58.47;24.13;;;;;;;;;;5055215;28;20314;-45
2022/11/20 14:26:51;;;;;;;91.63;31.43;;;;;;;;;;5055407;28;20297;-45
2022/11/20 14:29:20;;;;;;;73.87;27.30;;;;;;;;;;5055674;28;20224;-45
2022/11/20 14:31:48;;;;;;;57.70;23.10;;;;;;;;;;5053620;28;20728;-44
2022/11/20 14:34:22;;;;;;;56.27;22.40;;;;;;;;;;5054916;28;20216;-44
2022/11/20 14:36:52;;;;;;;59.33;24.40;;;;;;;;;;5055175;28;20235;-47
2022/11/20 14:39:26;;;;;;;62.67;24.03;;;;;;;;;;5054899;28;20212;-45
2022/11/20 14:41:53;;;;;;;159.07;59.87;;;;;;;;;;5055435;28;20665;-44
2022/11/20 14:44:25;;;;;;;68.53;37.57;;;;;;;;;;5055526;28;20290;-45
2022/11/20 14:46:52;;;;;;;65.37;30.77;;;;;;;;;;5021882;28;20232;-46
2022/11/20 14:49:19;;;;;;;141.03;39.73;;;;;;;;;;5055123;28;20231;-45
2022/11/20 14:51:46;;;;;;;115.63;37.60;;;;;;;;;;5054312;28;20235;-45
2022/11/20 14:54:25;;;;;;;211.37;66.17;;;;;;;;;;5055903;28;20208;-45
2022/11/20 14:57:03;;;;;;;161.37;52.47;;;;;;;;;;5055595;28;20236;-44